sensor_id;sensor_type;location;lat;lon;timestamp;P1;durP1;ratioP1;P2;durP2;ratioP2
4933;SDS011;2482;49.154;8.254;2023-05-10T00:00:55;0.63;;;0.63;;
4933;SDS011;2482;49.154;8.254;2023-05-10T00:03:23;0.80;;;0.80;;
4933;SDS011;2482;49.154;8.254;2023-05-10T00:05:50;0.70;;;0.70;;
4933;SDS011;2482;49.154;8.254;2023-05-10T00:08:17;1.07;;;0.80;;
4933;SDS011;2482;49.154;8.254;2023-05-10T00:10:44;0.60;;;0.60;;
4933;SDS011;2482;49.154;8.254;2023-05-10T00:13:11;0.83;;;0.60;;
4933;SDS011;2482;49.154;8.254;2023-05-10T00:15:38;0.70;;;0.67;;
4933;SDS011;2482;49.154;8.254;2023-05-10T00:18:05;0.80;;;0.80;;
4933;SDS011;2482;49.154;8.254;2023-05-10T00:20:32;1.10;;;0.80;;
4933;SDS011;2482;49.154;8.254;2023-05-10T00:22:59;0.60;;;0.60;;
4933;SDS011;2482;49.154;8.254;2023-05-10T00:25:28;0.70;;;0.70;;
4933;SDS011;2482;49.154;8.254;2023-05-10T00:27:56;0.80;;;0.80;;
4933;SDS011;2482;49.154;8.254;2023-05-10T00:30:24;1.80;;;0.70;;
4933;SDS011;2482;49.154;8.254;2023-05-10T00:32:51;1.47;;;1.10;;
4933;SDS011;2482;49.154;8.254;2023-05-10T00:35:18;0.77;;;0.77;;
4933;SDS011;2482;49.154;8.254;2023-05-10T00:37:45;0.80;;;0.80;;
4933;SDS011;2482;49.154;8.254;2023-05-10T00:40:12;1.00;;;0.60;;
4933;SDS011;2482;49.154;8.254;2023-05-10T00:42:41;0.80;;;0.80;;
4933;SDS011;2482;49.154;8.254;2023-05-10T00:45:08;0.90;;;0.90;;
4933;SDS011;2482;49.154;8.254;2023-05-10T00:47:37;1.00;;;0.90;;
4933;SDS011;2482;49.154;8.254;2023-05-10T00:50:04;0.97;;;0.90;;
4933;SDS011;2482;49.154;8.254;2023-05-10T00:52:32;2.30;;;0.90;;
4933;SDS011;2482;49.154;8.254;2023-05-10T00:54:59;2.30;;;1.10;;
4933;SDS011;2482;49.154;8.254;2023-05-10T00:57:27;1.50;;;1.03;;
4933;SDS011;2482;49.154;8.254;2023-05-10T00:59:54;0.90;;;0.90;;
4933;SDS011;2482;49.154;8.254;2023-05-10T01:02:21;4.50;;;1.43;;
4933;SDS011;2482;49.154;8.254;2023-05-10T01:04:48;2.10;;;1.27;;
4933;SDS011;2482;49.154;8.254;2023-05-10T01:07:15;1.90;;;1.60;;
4933;SDS011;2482;49.154;8.254;2023-05-10T01:09:43;1.80;;;1.30;;
4933;SDS011;2482;49.154;8.254;2023-05-10T01:12:10;3.03;;;1.20;;
4933;SDS011;2482;49.154;8.254;2023-05-10T01:14:37;1.40;;;1.30;;
4933;SDS011;2482;49.154;8.254;2023-05-10T01:17:05;1.70;;;1.50;;
4933;SDS011;2482;49.154;8.254;2023-05-10T01:19:34;2.47;;;1.27;;
4933;SDS011;2482;49.154;8.254;2023-05-10T01:22:11;1.20;;;1.10;;
4933;SDS011;2482;49.154;8.254;2023-05-10T01:25:11;1.27;;;1.17;;
4933;SDS011;2482;49.154;8.254;2023-05-10T01:34:08;1.90;;;1.40;;
4933;SDS011;2482;49.154;8.254;2023-05-10T01:36:41;1.53;;;1.40;;
4933;SDS011;2482;49.154;8.254;2023-05-10T01:39:26;3.70;;;1.73;;
4933;SDS011;2482;49.154;8.254;2023-05-10T01:42:10;1.57;;;1.47;;
4933;SDS011;2482;49.154;8.254;2023-05-10T01:50:29;3.50;;;1.90;;
4933;SDS011;2482;49.154;8.254;2023-05-10T01:52:57;2.40;;;1.87;;
4933;SDS011;2482;49.154;8.254;2023-05-10T01:55:30;10.80;;;1.87;;
4933;SDS011;2482;49.154;8.254;2023-05-10T01:58:09;4.00;;;2.10;;
4933;SDS011;2482;49.154;8.254;2023-05-10T02:00:40;1.80;;;1.70;;
4933;SDS011;2482;49.154;8.254;2023-05-10T02:03:13;1.53;;;1.43;;
4933;SDS011;2482;49.154;8.254;2023-05-10T02:05:43;2.93;;;1.50;;
4933;SDS011;2482;49.154;8.254;2023-05-10T02:08:12;3.83;;;1.70;;
4933;SDS011;2482;49.154;8.254;2023-05-10T02:10:42;2.13;;;2.00;;
4933;SDS011;2482;49.154;8.254;2023-05-10T02:13:11;1.70;;;1.60;;
4933;SDS011;2482;49.154;8.254;2023-05-10T02:15:42;3.37;;;1.47;;
4933;SDS011;2482;49.154;8.254;2023-05-10T02:18:09;3.17;;;2.00;;
4933;SDS011;2482;49.154;8.254;2023-05-10T02:20:37;2.10;;;1.90;;
4933;SDS011;2482;49.154;8.254;2023-05-10T02:23:05;5.37;;;2.40;;
4933;SDS011;2482;49.154;8.254;2023-05-10T02:25:34;2.70;;;1.90;;
4933;SDS011;2482;49.154;8.254;2023-05-10T02:28:05;2.47;;;2.27;;
4933;SDS011;2482;49.154;8.254;2023-05-10T02:30:33;2.00;;;1.90;;
4933;SDS011;2482;49.154;8.254;2023-05-10T02:33:02;1.60;;;1.50;;
4933;SDS011;2482;49.154;8.254;2023-05-10T02:35:31;2.20;;;2.10;;
4933;SDS011;2482;49.154;8.254;2023-05-10T02:38:00;2.43;;;2.23;;
4933;SDS011;2482;49.154;8.254;2023-05-10T02:40:27;3.17;;;2.40;;
4933;SDS011;2482;49.154;8.254;2023-05-10T02:42:56;3.80;;;2.33;;
4933;SDS011;2482;49.154;8.254;2023-05-10T02:45:27;2.47;;;2.30;;
4933;SDS011;2482;49.154;8.254;2023-05-10T02:47:58;2.80;;;2.60;;
4933;SDS011;2482;49.154;8.254;2023-05-10T02:50:26;2.90;;;2.40;;
4933;SDS011;2482;49.154;8.254;2023-05-10T02:52:56;3.13;;;2.83;;
4933;SDS011;2482;49.154;8.254;2023-05-10T02:58:03;2.83;;;2.60;;
4933;SDS011;2482;49.154;8.254;2023-05-10T03:00:30;3.47;;;2.90;;
4933;SDS011;2482;49.154;8.254;2023-05-10T03:02:57;2.73;;;2.53;;
4933;SDS011;2482;49.154;8.254;2023-05-10T03:05:25;3.30;;;3.07;;
4933;SDS011;2482;49.154;8.254;2023-05-10T03:07:52;4.03;;;3.27;;
4933;SDS011;2482;49.154;8.254;2023-05-10T03:10:24;4.40;;;3.60;;
4933;SDS011;2482;49.154;8.254;2023-05-10T03:13:07;4.33;;;3.10;;
4933;SDS011;2482;49.154;8.254;2023-05-10T03:16:27;4.13;;;3.50;;
4933;SDS011;2482;49.154;8.254;2023-05-10T03:19:11;6.73;;;3.77;;
4933;SDS011;2482;49.154;8.254;2023-05-10T03:21:49;4.20;;;3.53;;
4933;SDS011;2482;49.154;8.254;2023-05-10T03:24:20;4.50;;;3.60;;
4933;SDS011;2482;49.154;8.254;2023-05-10T03:26:49;6.67;;;3.70;;
4933;SDS011;2482;49.154;8.254;2023-05-10T03:29:19;4.10;;;3.70;;
4933;SDS011;2482;49.154;8.254;2023-05-10T03:31:50;4.27;;;3.87;;
4933;SDS011;2482;49.154;8.254;2023-05-10T03:34:22;4.33;;;3.93;;
4933;SDS011;2482;49.154;8.254;2023-05-10T03:36:51;4.57;;;4.17;;
4933;SDS011;2482;49.154;8.254;2023-05-10T03:39:18;4.37;;;4.00;;
4933;SDS011;2482;49.154;8.254;2023-05-10T03:41:47;5.40;;;4.90;;
4933;SDS011;2482;49.154;8.254;2023-05-10T03:44:14;5.20;;;4.53;;
4933;SDS011;2482;49.154;8.254;2023-05-10T03:46:42;5.00;;;4.47;;
4933;SDS011;2482;49.154;8.254;2023-05-10T03:49:09;4.83;;;4.30;;
4933;SDS011;2482;49.154;8.254;2023-05-10T03:51:43;5.83;;;4.80;;
4933;SDS011;2482;49.154;8.254;2023-05-10T03:54:10;6.37;;;4.80;;
4933;SDS011;2482;49.154;8.254;2023-05-10T03:56:39;6.20;;;5.13;;
4933;SDS011;2482;49.154;8.254;2023-05-10T03:59:08;5.60;;;4.93;;
4933;SDS011;2482;49.154;8.254;2023-05-10T04:01:35;5.40;;;4.90;;
4933;SDS011;2482;49.154;8.254;2023-05-10T04:04:02;5.47;;;4.97;;
4933;SDS011;2482;49.154;8.254;2023-05-10T04:06:29;8.20;;;5.70;;
4933;SDS011;2482;49.154;8.254;2023-05-10T04:08:57;4.70;;;4.30;;
4933;SDS011;2482;49.154;8.254;2023-05-10T04:11:26;4.50;;;4.10;;
4933;SDS011;2482;49.154;8.254;2023-05-10T04:13:54;5.80;;;5.30;;
4933;SDS011;2482;49.154;8.254;2023-05-10T04:16:21;9.90;;;5.20;;
4933;SDS011;2482;49.154;8.254;2023-05-10T04:18:48;5.63;;;5.10;;
4933;SDS011;2482;49.154;8.254;2023-05-10T04:21:15;6.07;;;5.30;;
4933;SDS011;2482;49.154;8.254;2023-05-10T04:23:43;6.67;;;5.77;;
4933;SDS011;2482;49.154;8.254;2023-05-10T04:26:10;6.20;;;5.60;;
4933;SDS011;2482;49.154;8.254;2023-05-10T04:28:39;6.80;;;6.20;;
4933;SDS011;2482;49.154;8.254;2023-05-10T04:31:07;7.83;;;5.90;;
4933;SDS011;2482;49.154;8.254;2023-05-10T04:36:07;6.60;;;5.63;;
4933;SDS011;2482;49.154;8.254;2023-05-10T04:38:36;7.30;;;6.30;;
4933;SDS011;2482;49.154;8.254;2023-05-10T04:41:04;6.70;;;6.10;;
4933;SDS011;2482;49.154;8.254;2023-05-10T04:43:35;6.50;;;5.90;;
4933;SDS011;2482;49.154;8.254;2023-05-10T04:46:03;12.97;;;6.20;;
4933;SDS011;2482;49.154;8.254;2023-05-10T04:48:31;6.73;;;6.03;;
4933;SDS011;2482;49.154;8.254;2023-05-10T04:50:58;12.00;;;7.50;;
4933;SDS011;2482;49.154;8.254;2023-05-10T04:53:25;10.20;;;7.10;;
4933;SDS011;2482;49.154;8.254;2023-05-10T04:55:52;8.07;;;7.27;;
4933;SDS011;2482;49.154;8.254;2023-05-10T04:58:20;7.70;;;7.00;;
4933;SDS011;2482;49.154;8.254;2023-05-10T05:00:48;8.77;;;7.70;;
4933;SDS011;2482;49.154;8.254;2023-05-10T05:03:15;8.53;;;7.73;;
4933;SDS011;2482;49.154;8.254;2023-05-10T05:05:43;9.40;;;7.63;;
4933;SDS011;2482;49.154;8.254;2023-05-10T05:08:11;7.87;;;7.07;;
4933;SDS011;2482;49.154;8.254;2023-05-10T05:10:38;8.40;;;7.60;;
4933;SDS011;2482;49.154;8.254;2023-05-10T05:13:06;8.33;;;7.53;;
4933;SDS011;2482;49.154;8.254;2023-05-10T05:15:34;7.80;;;7.00;;
4933;SDS011;2482;49.154;8.254;2023-05-10T05:18:01;8.93;;;6.80;;
4933;SDS011;2482;49.154;8.254;2023-05-10T05:20:28;6.40;;;5.80;;
4933;SDS011;2482;49.154;8.254;2023-05-10T05:23:01;6.57;;;5.40;;
4933;SDS011;2482;49.154;8.254;2023-05-10T05:25:29;5.67;;;5.07;;
4933;SDS011;2482;49.154;8.254;2023-05-10T05:27:58;4.47;;;4.07;;
4933;SDS011;2482;49.154;8.254;2023-05-10T05:30:29;4.00;;;3.70;;
4933;SDS011;2482;49.154;8.254;2023-05-10T05:32:56;5.07;;;4.03;;
4933;SDS011;2482;49.154;8.254;2023-05-10T05:35:23;7.60;;;3.93;;
4933;SDS011;2482;49.154;8.254;2023-05-10T05:37:50;3.90;;;3.60;;
4933;SDS011;2482;49.154;8.254;2023-05-10T05:40:18;3.60;;;3.30;;
4933;SDS011;2482;49.154;8.254;2023-05-10T05:42:47;4.70;;;4.27;;
4933;SDS011;2482;49.154;8.254;2023-05-10T05:45:14;6.10;;;5.40;;
4933;SDS011;2482;49.154;8.254;2023-05-10T05:47:43;6.17;;;4.77;;
4933;SDS011;2482;49.154;8.254;2023-05-10T05:50:10;6.80;;;5.53;;
4933;SDS011;2482;49.154;8.254;2023-05-10T05:52:37;6.33;;;5.27;;
4933;SDS011;2482;49.154;8.254;2023-05-10T05:55:05;5.60;;;5.10;;
4933;SDS011;2482;49.154;8.254;2023-05-10T05:57:34;8.00;;;5.70;;
4933;SDS011;2482;49.154;8.254;2023-05-10T06:00:01;6.30;;;5.73;;
4933;SDS011;2482;49.154;8.254;2023-05-10T06:02:29;6.60;;;6.00;;
4933;SDS011;2482;49.154;8.254;2023-05-10T06:04:56;6.43;;;5.90;;
4933;SDS011;2482;49.154;8.254;2023-05-10T06:07:23;8.53;;;6.30;;
4933;SDS011;2482;49.154;8.254;2023-05-10T06:09:51;6.90;;;6.20;;
4933;SDS011;2482;49.154;8.254;2023-05-10T06:12:19;7.67;;;6.33;;
4933;SDS011;2482;49.154;8.254;2023-05-10T06:14:46;10.70;;;6.50;;
4933;SDS011;2482;49.154;8.254;2023-05-10T06:17:14;11.40;;;6.33;;
4933;SDS011;2482;49.154;8.254;2023-05-10T06:19:40;6.63;;;6.03;;
4933;SDS011;2482;49.154;8.254;2023-05-10T06:22:07;8.93;;;6.27;;
4933;SDS011;2482;49.154;8.254;2023-05-10T06:24:34;5.30;;;4.90;;
4933;SDS011;2482;49.154;8.254;2023-05-10T06:27:01;12.93;;;6.27;;
4933;SDS011;2482;49.154;8.254;2023-05-10T06:29:29;9.53;;;5.37;;
4933;SDS011;2482;49.154;8.254;2023-05-10T06:31:56;6.03;;;5.27;;
4933;SDS011;2482;49.154;8.254;2023-05-10T06:34:23;5.43;;;4.93;;
4933;SDS011;2482;49.154;8.254;2023-05-10T06:36:50;5.07;;;4.57;;
4933;SDS011;2482;49.154;8.254;2023-05-10T06:39:17;5.20;;;4.70;;
4933;SDS011;2482;49.154;8.254;2023-05-10T06:41:44;5.53;;;5.00;;
4933;SDS011;2482;49.154;8.254;2023-05-10T06:44:11;5.70;;;5.20;;
4933;SDS011;2482;49.154;8.254;2023-05-10T06:46:39;4.90;;;4.50;;
4933;SDS011;2482;49.154;8.254;2023-05-10T06:49:06;5.80;;;4.33;;
4933;SDS011;2482;49.154;8.254;2023-05-10T06:51:33;5.53;;;5.07;;
4933;SDS011;2482;49.154;8.254;2023-05-10T06:54:00;8.73;;;4.60;;
4933;SDS011;2482;49.154;8.254;2023-05-10T06:56:28;5.00;;;4.50;;
4933;SDS011;2482;49.154;8.254;2023-05-10T06:58:54;4.20;;;3.80;;
4933;SDS011;2482;49.154;8.254;2023-05-10T07:01:22;5.07;;;3.80;;
4933;SDS011;2482;49.154;8.254;2023-05-10T07:03:50;4.10;;;3.50;;
4933;SDS011;2482;49.154;8.254;2023-05-10T07:06:17;3.10;;;2.80;;
4933;SDS011;2482;49.154;8.254;2023-05-10T07:08:57;3.40;;;3.20;;
4933;SDS011;2482;49.154;8.254;2023-05-10T07:11:24;5.93;;;2.33;;
4933;SDS011;2482;49.154;8.254;2023-05-10T07:13:52;3.27;;;1.90;;
4933;SDS011;2482;49.154;8.254;2023-05-10T07:16:21;1.40;;;1.30;;
4933;SDS011;2482;49.154;8.254;2023-05-10T07:18:48;1.40;;;1.30;;
4933;SDS011;2482;49.154;8.254;2023-05-10T07:21:16;0.90;;;0.90;;
4933;SDS011;2482;49.154;8.254;2023-05-10T07:23:43;2.13;;;1.07;;
4933;SDS011;2482;49.154;8.254;2023-05-10T07:26:10;3.70;;;0.90;;
4933;SDS011;2482;49.154;8.254;2023-05-10T07:28:37;1.73;;;1.00;;
4933;SDS011;2482;49.154;8.254;2023-05-10T07:31:06;5.30;;;1.17;;
4933;SDS011;2482;49.154;8.254;2023-05-10T07:33:33;2.00;;;1.00;;
4933;SDS011;2482;49.154;8.254;2023-05-10T07:36:00;3.23;;;0.90;;
4933;SDS011;2482;49.154;8.254;2023-05-10T07:38:27;1.43;;;0.90;;
4933;SDS011;2482;49.154;8.254;2023-05-10T07:40:54;2.20;;;0.90;;
4933;SDS011;2482;49.154;8.254;2023-05-10T07:43:23;1.93;;;0.90;;
4933;SDS011;2482;49.154;8.254;2023-05-10T07:45:50;5.60;;;1.23;;
4933;SDS011;2482;49.154;8.254;2023-05-10T07:48:21;2.33;;;1.00;;
4933;SDS011;2482;49.154;8.254;2023-05-10T07:50:50;1.93;;;1.00;;
4933;SDS011;2482;49.154;8.254;2023-05-10T07:53:17;1.00;;;0.90;;
4933;SDS011;2482;49.154;8.254;2023-05-10T07:55:49;2.40;;;0.90;;
4933;SDS011;2482;49.154;8.254;2023-05-10T07:58:18;1.10;;;1.00;;
4933;SDS011;2482;49.154;8.254;2023-05-10T08:00:45;1.90;;;1.00;;
4933;SDS011;2482;49.154;8.254;2023-05-10T08:03:12;0.90;;;0.90;;
4933;SDS011;2482;49.154;8.254;2023-05-10T08:05:39;1.40;;;0.97;;
4933;SDS011;2482;49.154;8.254;2023-05-10T08:08:06;1.93;;;1.00;;
4933;SDS011;2482;49.154;8.254;2023-05-10T08:10:33;1.30;;;1.20;;
4933;SDS011;2482;49.154;8.254;2023-05-10T08:13:00;4.63;;;1.30;;
4933;SDS011;2482;49.154;8.254;2023-05-10T08:15:30;0.97;;;0.90;;
4933;SDS011;2482;49.154;8.254;2023-05-10T08:17:57;1.23;;;1.13;;
4933;SDS011;2482;49.154;8.254;2023-05-10T08:20:24;1.10;;;1.00;;
4933;SDS011;2482;49.154;8.254;2023-05-10T08:22:51;0.80;;;0.80;;
4933;SDS011;2482;49.154;8.254;2023-05-10T08:25:19;1.00;;;1.00;;
4933;SDS011;2482;49.154;8.254;2023-05-10T08:27:46;0.90;;;0.90;;
4933;SDS011;2482;49.154;8.254;2023-05-10T08:30:13;1.73;;;1.17;;
4933;SDS011;2482;49.154;8.254;2023-05-10T08:32:40;1.17;;;1.00;;
4933;SDS011;2482;49.154;8.254;2023-05-10T08:35:07;1.20;;;1.00;;
4933;SDS011;2482;49.154;8.254;2023-05-10T08:37:34;1.00;;;1.00;;
4933;SDS011;2482;49.154;8.254;2023-05-10T08:40:01;0.90;;;0.90;;
4933;SDS011;2482;49.154;8.254;2023-05-10T08:42:30;0.87;;;0.87;;
4933;SDS011;2482;49.154;8.254;2023-05-10T08:45:02;1.90;;;1.33;;
4933;SDS011;2482;49.154;8.254;2023-05-10T08:47:30;1.17;;;0.90;;
4933;SDS011;2482;49.154;8.254;2023-05-10T08:49:58;1.43;;;1.10;;
4933;SDS011;2482;49.154;8.254;2023-05-10T08:52:25;1.50;;;1.00;;
4933;SDS011;2482;49.154;8.254;2023-05-10T08:54:54;1.37;;;1.13;;
4933;SDS011;2482;49.154;8.254;2023-05-10T08:57:22;4.33;;;1.17;;
4933;SDS011;2482;49.154;8.254;2023-05-10T08:59:49;2.17;;;1.07;;
4933;SDS011;2482;49.154;8.254;2023-05-10T09:02:16;1.00;;;0.90;;
4933;SDS011;2482;49.154;8.254;2023-05-10T09:04:44;1.53;;;1.00;;
4933;SDS011;2482;49.154;8.254;2023-05-10T09:07:12;1.30;;;1.00;;
4933;SDS011;2482;49.154;8.254;2023-05-10T09:09:39;4.73;;;1.03;;
4933;SDS011;2482;49.154;8.254;2023-05-10T09:12:07;1.50;;;0.97;;
4933;SDS011;2482;49.154;8.254;2023-05-10T09:14:37;4.13;;;0.90;;
4933;SDS011;2482;49.154;8.254;2023-05-10T09:17:04;1.30;;;0.93;;
4933;SDS011;2482;49.154;8.254;2023-05-10T09:19:33;1.83;;;0.90;;
4933;SDS011;2482;49.154;8.254;2023-05-10T09:22:00;1.43;;;1.00;;
4933;SDS011;2482;49.154;8.254;2023-05-10T09:24:29;1.57;;;0.90;;
4933;SDS011;2482;49.154;8.254;2023-05-10T09:26:57;1.03;;;0.80;;
4933;SDS011;2482;49.154;8.254;2023-05-10T09:29:38;1.73;;;0.97;;
4933;SDS011;2482;49.154;8.254;2023-05-10T09:32:08;1.17;;;0.90;;
4933;SDS011;2482;49.154;8.254;2023-05-10T09:34:39;1.17;;;1.07;;
4933;SDS011;2482;49.154;8.254;2023-05-10T09:37:07;0.90;;;0.90;;
4933;SDS011;2482;49.154;8.254;2023-05-10T09:39:36;1.80;;;0.80;;
4933;SDS011;2482;49.154;8.254;2023-05-10T09:42:05;1.60;;;0.87;;
4933;SDS011;2482;49.154;8.254;2023-05-10T09:44:35;1.40;;;0.80;;
4933;SDS011;2482;49.154;8.254;2023-05-10T09:47:04;1.90;;;0.70;;
4933;SDS011;2482;49.154;8.254;2023-05-10T09:49:32;1.53;;;0.90;;
4933;SDS011;2482;49.154;8.254;2023-05-10T09:52:08;4.93;;;0.90;;
4933;SDS011;2482;49.154;8.254;2023-05-10T09:54:35;1.60;;;0.80;;
4933;SDS011;2482;49.154;8.254;2023-05-10T09:57:03;0.97;;;0.93;;
4933;SDS011;2482;49.154;8.254;2023-05-10T09:59:32;2.20;;;1.03;;
4933;SDS011;2482;49.154;8.254;2023-05-10T10:02:01;3.27;;;1.63;;
4933;SDS011;2482;49.154;8.254;2023-05-10T10:04:30;3.13;;;2.00;;
4933;SDS011;2482;49.154;8.254;2023-05-10T10:07:01;1.03;;;0.90;;
4933;SDS011;2482;49.154;8.254;2023-05-10T10:09:32;2.00;;;1.03;;
4933;SDS011;2482;49.154;8.254;2023-05-10T10:12:03;1.17;;;0.90;;
4933;SDS011;2482;49.154;8.254;2023-05-10T10:14:30;1.47;;;0.90;;
4933;SDS011;2482;49.154;8.254;2023-05-10T10:16:57;3.67;;;0.80;;
4933;SDS011;2482;49.154;8.254;2023-05-10T10:19:30;4.90;;;1.20;;
4933;SDS011;2482;49.154;8.254;2023-05-10T10:22:00;2.50;;;0.87;;
4933;SDS011;2482;49.154;8.254;2023-05-10T10:24:27;2.20;;;0.90;;
4933;SDS011;2482;49.154;8.254;2023-05-10T10:26:55;1.80;;;0.93;;
4933;SDS011;2482;49.154;8.254;2023-05-10T10:29:47;2.57;;;0.87;;
4933;SDS011;2482;49.154;8.254;2023-05-10T10:35:35;4.07;;;0.90;;
4933;SDS011;2482;49.154;8.254;2023-05-10T10:38:02;3.23;;;0.90;;
4933;SDS011;2482;49.154;8.254;2023-05-10T10:40:31;2.57;;;1.57;;
4933;SDS011;2482;49.154;8.254;2023-05-10T10:46:27;2.10;;;1.33;;
4933;SDS011;2482;49.154;8.254;2023-05-10T10:48:49;2.40;;;0.93;;
4933;SDS011;2482;49.154;8.254;2023-05-10T10:54:09;3.17;;;0.90;;
4933;SDS011;2482;49.154;8.254;2023-05-10T10:56:37;3.57;;;1.00;;
4933;SDS011;2482;49.154;8.254;2023-05-10T10:59:04;2.50;;;1.17;;
4933;SDS011;2482;49.154;8.254;2023-05-10T11:01:34;2.97;;;0.93;;
4933;SDS011;2482;49.154;8.254;2023-05-10T11:06:32;3.80;;;1.10;;
4933;SDS011;2482;49.154;8.254;2023-05-10T11:09:09;5.70;;;1.00;;
4933;SDS011;2482;49.154;8.254;2023-05-10T11:11:53;3.53;;;1.10;;
4933;SDS011;2482;49.154;8.254;2023-05-10T11:14:24;1.00;;;0.70;;
4933;SDS011;2482;49.154;8.254;2023-05-10T11:16:52;4.20;;;1.63;;
4933;SDS011;2482;49.154;8.254;2023-05-10T11:19:19;1.93;;;0.93;;
4933;SDS011;2482;49.154;8.254;2023-05-10T11:24:40;2.30;;;0.90;;
4933;SDS011;2482;49.154;8.254;2023-05-10T11:27:24;2.50;;;0.87;;
4933;SDS011;2482;49.154;8.254;2023-05-10T11:29:51;2.33;;;1.00;;
4933;SDS011;2482;49.154;8.254;2023-05-10T11:32:19;1.77;;;0.90;;
4933;SDS011;2482;49.154;8.254;2023-05-10T11:34:46;4.07;;;0.90;;
4933;SDS011;2482;49.154;8.254;2023-05-10T11:37:14;0.87;;;0.80;;
4933;SDS011;2482;49.154;8.254;2023-05-10T11:39:45;2.83;;;1.10;;
4933;SDS011;2482;49.154;8.254;2023-05-10T11:42:15;1.23;;;0.90;;
4933;SDS011;2482;49.154;8.254;2023-05-10T11:44:44;0.83;;;0.73;;
4933;SDS011;2482;49.154;8.254;2023-05-10T11:47:13;1.50;;;0.80;;
4933;SDS011;2482;49.154;8.254;2023-05-10T11:49:43;4.70;;;1.00;;
4933;SDS011;2482;49.154;8.254;2023-05-10T11:52:10;1.20;;;0.90;;
4933;SDS011;2482;49.154;8.254;2023-05-10T11:54:59;1.60;;;0.90;;
4933;SDS011;2482;49.154;8.254;2023-05-10T11:57:26;1.63;;;0.90;;
4933;SDS011;2482;49.154;8.254;2023-05-10T11:59:56;2.80;;;1.10;;
4933;SDS011;2482;49.154;8.254;2023-05-10T12:02:23;2.83;;;1.60;;
4933;SDS011;2482;49.154;8.254;2023-05-10T12:04:50;1.90;;;1.10;;
4933;SDS011;2482;49.154;8.254;2023-05-10T12:07:18;3.27;;;1.30;;
4933;SDS011;2482;49.154;8.254;2023-05-10T12:10:01;1.43;;;1.10;;
4933;SDS011;2482;49.154;8.254;2023-05-10T12:12:46;6.10;;;1.10;;
4933;SDS011;2482;49.154;8.254;2023-05-10T12:15:19;0.80;;;0.70;;
4933;SDS011;2482;49.154;8.254;2023-05-10T12:17:50;1.30;;;1.03;;
4933;SDS011;2482;49.154;8.254;2023-05-10T12:20:18;5.03;;;0.90;;
4933;SDS011;2482;49.154;8.254;2023-05-10T12:22:54;4.47;;;1.13;;
4933;SDS011;2482;49.154;8.254;2023-05-10T12:25:29;1.57;;;1.10;;
4933;SDS011;2482;49.154;8.254;2023-05-10T12:28:00;1.53;;;0.97;;
4933;SDS011;2482;49.154;8.254;2023-05-10T12:30:31;1.47;;;0.80;;
4933;SDS011;2482;49.154;8.254;2023-05-10T12:33:01;3.50;;;0.90;;
4933;SDS011;2482;49.154;8.254;2023-05-10T12:35:46;1.17;;;0.80;;
4933;SDS011;2482;49.154;8.254;2023-05-10T12:41:02;0.90;;;0.70;;
4933;SDS011;2482;49.154;8.254;2023-05-10T12:43:32;1.40;;;1.00;;
4933;SDS011;2482;49.154;8.254;2023-05-10T12:48:36;0.87;;;0.70;;
4933;SDS011;2482;49.154;8.254;2023-05-10T12:51:05;1.20;;;0.70;;
4933;SDS011;2482;49.154;8.254;2023-05-10T12:53:38;1.33;;;0.70;;
4933;SDS011;2482;49.154;8.254;2023-05-10T12:56:09;1.20;;;0.90;;
4933;SDS011;2482;49.154;8.254;2023-05-10T12:58:38;1.67;;;0.90;;
4933;SDS011;2482;49.154;8.254;2023-05-10T13:01:05;2.47;;;0.80;;
4933;SDS011;2482;49.154;8.254;2023-05-10T13:03:32;1.43;;;0.70;;
4933;SDS011;2482;49.154;8.254;2023-05-10T13:05:59;1.07;;;0.60;;
4933;SDS011;2482;49.154;8.254;2023-05-10T13:08:27;0.70;;;0.60;;
4933;SDS011;2482;49.154;8.254;2023-05-10T13:11:00;2.73;;;0.70;;
4933;SDS011;2482;49.154;8.254;2023-05-10T13:13:29;2.23;;;0.70;;
4933;SDS011;2482;49.154;8.254;2023-05-10T13:15:56;0.70;;;0.70;;
4933;SDS011;2482;49.154;8.254;2023-05-10T13:18:23;3.17;;;0.60;;
4933;SDS011;2482;49.154;8.254;2023-05-10T13:20:50;0.97;;;0.73;;
4933;SDS011;2482;49.154;8.254;2023-05-10T13:25:49;1.40;;;1.20;;
4933;SDS011;2482;49.154;8.254;2023-05-10T13:28:16;0.60;;;0.60;;
4933;SDS011;2482;49.154;8.254;2023-05-10T13:30:43;2.60;;;0.80;;
4933;SDS011;2482;49.154;8.254;2023-05-10T13:33:10;1.53;;;0.70;;
4933;SDS011;2482;49.154;8.254;2023-05-10T13:35:37;3.03;;;0.60;;
4933;SDS011;2482;49.154;8.254;2023-05-10T13:38:04;1.80;;;0.60;;
4933;SDS011;2482;49.154;8.254;2023-05-10T13:40:34;1.10;;;0.70;;
4933;SDS011;2482;49.154;8.254;2023-05-10T13:43:03;1.80;;;0.70;;
4933;SDS011;2482;49.154;8.254;2023-05-10T13:45:30;3.53;;;0.93;;
4933;SDS011;2482;49.154;8.254;2023-05-10T13:47:57;1.63;;;0.70;;
4933;SDS011;2482;49.154;8.254;2023-05-10T13:50:24;3.10;;;0.97;;
4933;SDS011;2482;49.154;8.254;2023-05-10T13:52:52;2.27;;;0.70;;
4933;SDS011;2482;49.154;8.254;2023-05-10T13:55:19;1.17;;;0.57;;
4933;SDS011;2482;49.154;8.254;2023-05-10T13:57:46;2.40;;;0.70;;
4933;SDS011;2482;49.154;8.254;2023-05-10T14:00:13;1.40;;;0.73;;
4933;SDS011;2482;49.154;8.254;2023-05-10T14:02:42;2.40;;;0.70;;
4933;SDS011;2482;49.154;8.254;2023-05-10T14:05:09;0.70;;;0.60;;
4933;SDS011;2482;49.154;8.254;2023-05-10T14:07:36;0.90;;;0.80;;
4933;SDS011;2482;49.154;8.254;2023-05-10T14:10:04;2.47;;;0.73;;
4933;SDS011;2482;49.154;8.254;2023-05-10T14:12:32;2.80;;;0.50;;
4933;SDS011;2482;49.154;8.254;2023-05-10T14:14:59;0.70;;;0.60;;
4933;SDS011;2482;49.154;8.254;2023-05-10T14:17:26;1.47;;;0.70;;
4933;SDS011;2482;49.154;8.254;2023-05-10T14:19:53;1.97;;;0.60;;
4933;SDS011;2482;49.154;8.254;2023-05-10T14:22:20;4.80;;;0.80;;
4933;SDS011;2482;49.154;8.254;2023-05-10T14:24:48;1.23;;;0.60;;
4933;SDS011;2482;49.154;8.254;2023-05-10T14:27:15;4.70;;;0.67;;
4933;SDS011;2482;49.154;8.254;2023-05-10T14:29:42;0.73;;;0.60;;
4933;SDS011;2482;49.154;8.254;2023-05-10T14:32:09;0.70;;;0.60;;
4933;SDS011;2482;49.154;8.254;2023-05-10T14:34:37;1.37;;;0.60;;
4933;SDS011;2482;49.154;8.254;2023-05-10T14:37:05;0.70;;;0.50;;
4933;SDS011;2482;49.154;8.254;2023-05-10T14:39:33;1.27;;;0.60;;
4933;SDS011;2482;49.154;8.254;2023-05-10T14:42:00;5.93;;;0.70;;
4933;SDS011;2482;49.154;8.254;2023-05-10T14:44:29;0.97;;;0.63;;
4933;SDS011;2482;49.154;8.254;2023-05-10T14:46:56;1.70;;;0.63;;
4933;SDS011;2482;49.154;8.254;2023-05-10T14:49:24;0.50;;;0.50;;
4933;SDS011;2482;49.154;8.254;2023-05-10T14:51:52;0.70;;;0.50;;
4933;SDS011;2482;49.154;8.254;2023-05-10T14:54:19;2.00;;;0.70;;
4933;SDS011;2482;49.154;8.254;2023-05-10T14:56:46;1.93;;;0.73;;
4933;SDS011;2482;49.154;8.254;2023-05-10T14:59:15;4.27;;;0.63;;
4933;SDS011;2482;49.154;8.254;2023-05-10T15:01:43;4.10;;;0.70;;
4933;SDS011;2482;49.154;8.254;2023-05-10T15:04:10;1.20;;;0.70;;
4933;SDS011;2482;49.154;8.254;2023-05-10T15:06:40;2.10;;;0.60;;
4933;SDS011;2482;49.154;8.254;2023-05-10T15:09:07;0.80;;;0.60;;
4933;SDS011;2482;49.154;8.254;2023-05-10T15:11:35;1.63;;;0.60;;
4933;SDS011;2482;49.154;8.254;2023-05-10T15:14:02;1.73;;;0.83;;
4933;SDS011;2482;49.154;8.254;2023-05-10T15:16:30;2.00;;;0.90;;
4933;SDS011;2482;49.154;8.254;2023-05-10T15:19:01;2.73;;;0.87;;
4933;SDS011;2482;49.154;8.254;2023-05-10T15:21:28;2.07;;;1.00;;
4933;SDS011;2482;49.154;8.254;2023-05-10T15:23:57;2.47;;;0.70;;
4933;SDS011;2482;49.154;8.254;2023-05-10T15:26:26;2.73;;;1.00;;
4933;SDS011;2482;49.154;8.254;2023-05-10T15:28:53;1.37;;;0.93;;
4933;SDS011;2482;49.154;8.254;2023-05-10T15:31:20;2.30;;;0.80;;
4933;SDS011;2482;49.154;8.254;2023-05-10T15:33:47;1.10;;;0.70;;
4933;SDS011;2482;49.154;8.254;2023-05-10T15:36:14;1.13;;;0.90;;
4933;SDS011;2482;49.154;8.254;2023-05-10T15:38:44;2.77;;;0.80;;
4933;SDS011;2482;49.154;8.254;2023-05-10T15:41:12;1.40;;;0.90;;
4933;SDS011;2482;49.154;8.254;2023-05-10T15:43:39;1.80;;;0.70;;
4933;SDS011;2482;49.154;8.254;2023-05-10T15:46:06;1.10;;;1.10;;
4933;SDS011;2482;49.154;8.254;2023-05-10T15:48:33;1.50;;;0.77;;
4933;SDS011;2482;49.154;8.254;2023-05-10T15:51:00;2.43;;;0.70;;
4933;SDS011;2482;49.154;8.254;2023-05-10T15:53:27;0.80;;;0.70;;
4933;SDS011;2482;49.154;8.254;2023-05-10T15:55:54;11.80;;;0.73;;
4933;SDS011;2482;49.154;8.254;2023-05-10T15:58:21;1.33;;;0.57;;
4933;SDS011;2482;49.154;8.254;2023-05-10T16:00:49;15.23;;;11.90;;
4933;SDS011;2482;49.154;8.254;2023-05-10T16:03:16;19.87;;;14.63;;
4933;SDS011;2482;49.154;8.254;2023-05-10T16:05:43;18.70;;;14.10;;